Tuskegee Institute, Alabama
Current Conditions -  °F | °C
As of 4:15 PM on Monday 20 Oct 2014 (Local Time) from KAUO Reporting Station
Few Clouds Few Clouds  
Wind Chill: 72°   Ceiling: Unl
Heat Index: 72°   Visibility: 10mi
Dew Point: 48°   Wind: 6mph
Humidity: 43%   Direction: 240°WSW
Pressure: 30.03"   Gusts: NA
Location:  32.42°N, 85.69°W
Report Text: KAUO 202115Z AUTO 24005KT 10SM FEW050 22/09 A3003 RMK AO1
Loading
Personal Weather Stations






























Interactive Weather Map
Tropical Storm Tracking
New forecast layout! Learn more

10-Day Weather Forecast

Advertisements
Track Severe Weather on mobile